Time;durP1;ratioP1;P1;durP2;ratioP2;P2;SDS_P1;SDS_P2;PMS_P1;PMS_P2;Temp;Humidity;BMP_temperature;BMP_pressure;BME280_temperature;BME280_humidity;BME280_pressure;Samples;Min_cycle;Max_cycle;Signal;HPM_P1;HPM_P2
2023/07/05 00:01:42;;;;;;;6.00;4.60;;;16.70;96.80;;;;;;5093510;28;20442;-59
2023/07/05 00:04:09;;;;;;;7.67;4.20;;;16.70;96.90;;;;;;5093391;28;20442;-60
2023/07/05 00:06:37;;;;;;;6.50;4.60;;;16.70;97.00;;;;;;5092801;28;20470;-58
2023/07/05 00:09:04;;;;;;;6.97;4.10;;;16.70;97.10;;;;;;5093473;28;20454;-59
2023/07/05 00:11:31;;;;;;;6.30;4.40;;;16.70;97.20;;;;;;5093286;28;20446;-58
2023/07/05 00:13:58;;;;;;;9.63;4.67;;;16.70;97.30;;;;;;5093329;28;20449;-59
2023/07/05 00:16:24;;;;;;;7.87;4.10;;;16.80;97.50;;;;;;5093162;28;20556;-60
2023/07/05 00:18:51;;;;;;;8.03;5.10;;;16.80;97.50;;;;;;5092998;28;20813;-59
2023/07/05 00:21:18;;;;;;;8.10;4.70;;;16.70;97.60;;;;;;5093077;28;20444;-58
2023/07/05 00:23:47;;;;;;;9.00;6.53;;;16.80;97.80;;;;;;5093296;28;20449;-58
2023/07/05 00:26:14;;;;;;;11.10;5.10;;;16.70;97.80;;;;;;5095722;28;20467;-59
2023/07/05 00:28:40;;;;;;;7.43;5.30;;;16.70;97.80;;;;;;5098155;28;20445;-58
2023/07/05 00:31:07;;;;;;;8.63;5.77;;;16.70;97.90;;;;;;5096944;28;20449;-59
2023/07/05 00:33:34;;;;;;;8.10;4.63;;;16.70;98.00;;;;;;5097206;28;20442;-57
2023/07/05 00:36:01;;;;;;;10.77;5.70;;;16.70;98.00;;;;;;5097645;28;20484;-59
2023/07/05 00:38:28;;;;;;;11.20;4.97;;;16.70;98.00;;;;;;5097093;28;20485;-59
2023/07/05 00:40:56;;;;;;;9.23;5.33;;;16.80;98.00;;;;;;5096916;28;20453;-58
2023/07/05 00:43:23;;;;;;;6.90;4.40;;;16.80;97.90;;;;;;5096672;28;20442;-59
2023/07/05 00:45:53;;;;;;;8.07;4.60;;;16.80;97.80;;;;;;5096564;28;20976;-59
2023/07/05 00:48:22;;;;;;;6.13;4.40;;;16.80;97.60;;;;;;5096650;28;20923;-59
2023/07/05 00:50:53;;;;;;;7.87;4.80;;;16.80;97.40;;;;;;5096961;28;20446;-59
2023/07/05 00:53:20;;;;;;;10.63;5.00;;;16.80;97.40;;;;;;5097697;28;20426;-58
2023/07/05 00:55:53;;;;;;;9.33;4.87;;;16.80;97.30;;;;;;5096846;28;20536;-60
2023/07/05 00:58:23;;;;;;;9.83;4.70;;;16.80;97.60;;;;;;5096852;28;20471;-59
2023/07/05 01:00:50;;;;;;;10.90;5.23;;;16.80;98.20;;;;;;5097443;28;20447;-58
2023/07/05 01:03:20;;;;;;;7.00;4.90;;;16.80;98.80;;;;;;5096834;28;20446;-59
2023/07/05 01:05:49;;;;;;;5.57;4.93;;;16.80;99.10;;;;;;5096939;28;20474;-58
2023/07/05 01:08:16;;;;;;;7.97;5.50;;;16.70;99.60;;;;;;5096731;28;20461;-59
2023/07/05 01:10:48;;;;;;;12.90;6.00;;;16.70;99.90;;;;;;5096805;28;20449;-60
2023/07/05 01:13:21;;;;;;;9.20;4.93;;;16.70;99.90;;;;;;5097071;28;20431;-59
2023/07/05 01:15:53;;;;;;;9.07;5.67;;;16.60;99.90;;;;;;5097006;28;20473;-60
2023/07/05 01:18:30;;;;;;;10.20;4.90;;;16.60;99.90;;;;;;5096884;28;20470;-58
2023/07/05 01:21:04;;;;;;;7.70;5.37;;;16.50;99.90;;;;;;5096764;28;20513;-58
2023/07/05 01:24:02;;;;;;;6.77;4.73;;;16.50;99.90;;;;;;5097702;28;20422;-58
2023/07/05 01:27:03;;;;;;;12.73;5.23;;;16.50;99.90;;;;;;5062279;28;20463;-58
2023/07/05 01:30:01;;;;;;;8.73;4.80;;;16.50;99.90;;;;;;5075654;28;20445;-59
2023/07/05 01:32:34;;;;;;;6.23;5.00;;;16.40;99.90;;;;;;5096533;28;20438;-58
2023/07/05 01:35:05;;;;;;;10.37;4.80;;;16.40;99.90;;;;;;5096112;28;20431;-59
2023/07/05 01:37:37;;;;;;;7.33;4.70;;;16.40;99.90;;;;;;5096015;28;20489;-59
2023/07/05 01:40:14;;;;;;;7.93;5.43;;;16.40;99.90;;;;;;5095228;28;20431;-59
2023/07/05 01:42:42;;;;;;;8.90;5.47;;;16.40;99.90;;;;;;5095814;28;20438;-59
2023/07/05 01:45:10;;;;;;;7.83;4.87;;;16.40;99.90;;;;;;5095711;28;20438;-58
2023/07/05 01:47:46;;;;;;;6.80;4.20;;;16.40;99.90;;;;;;5095326;28;20928;-58
2023/07/05 01:50:21;;;;;;;6.93;4.87;;;16.40;99.90;;;;;;5095564;28;20435;-58
2023/07/05 01:52:54;;;;;;;6.23;5.23;;;16.40;99.90;;;;;;5095631;28;20483;-58
2023/07/05 01:55:28;;;;;;;10.00;6.07;;;16.40;99.90;;;;;;5095582;28;20546;-59
2023/07/05 01:58:00;;;;;;;8.80;6.80;;;16.40;99.90;;;;;;5095472;28;20473;-58
2023/07/05 02:00:29;;;;;;;8.10;6.53;;;16.40;99.90;;;;;;5095506;28;20431;-59
2023/07/05 02:03:01;;;;;;;7.50;5.67;;;16.40;99.90;;;;;;5095514;28;20439;-58
2023/07/05 02:05:29;;;;;;;7.90;7.10;;;16.30;99.90;;;;;;5094886;28;20984;-58
2023/07/05 02:07:59;;;;;;;12.43;8.20;;;16.20;99.90;;;;;;5095391;28;20510;-58
2023/07/05 02:10:26;;;;;;;9.30;6.83;;;16.20;99.90;;;;;;5095154;28;20541;-58
2023/07/05 02:12:53;;;;;;;8.20;6.77;;;16.20;99.90;;;;;;5095150;28;20465;-59
2023/07/05 02:15:20;;;;;;;9.00;6.60;;;16.10;99.90;;;;;;5094758;28;21013;-57
2023/07/05 02:17:47;;;;;;;9.27;6.60;;;16.10;99.90;;;;;;5095117;28;20474;-58
2023/07/05 02:20:16;;;;;;;8.60;6.20;;;16.10;99.90;;;;;;5094716;28;20446;-58
2023/07/05 02:22:42;;;;;;;9.33;5.90;;;16.00;99.90;;;;;;5096328;28;20455;-58
2023/07/05 02:25:09;;;;;;;7.30;5.70;;;16.00;99.90;;;;;;5100591;28;20438;-57
2023/07/05 02:27:37;;;;;;;8.73;6.80;;;16.00;99.90;;;;;;5094701;28;20434;-57
2023/07/05 02:30:05;;;;;;;9.63;6.33;;;15.90;99.90;;;;;;5094980;28;20457;-57
2023/07/05 02:32:32;;;;;;;9.27;6.90;;;15.90;99.90;;;;;;5094559;28;20446;-58
2023/07/05 02:35:01;;;;;;;9.53;6.00;;;15.80;99.90;;;;;;5094531;28;20442;-58
2023/07/05 02:37:31;;;;;;;7.30;6.40;;;15.80;99.90;;;;;;5094599;28;20528;-57
2023/07/05 02:39:58;;;;;;;7.10;6.13;;;15.80;99.90;;;;;;5094669;28;20446;-58
2023/07/05 02:42:25;;;;;;;7.80;6.10;;;15.70;99.90;;;;;;5094500;28;20441;-59
2023/07/05 02:44:52;;;;;;;7.77;5.77;;;15.70;99.90;;;;;;5094400;28;20975;-58
2023/07/05 02:47:19;;;;;;;9.60;6.57;;;15.70;99.90;;;;;;5094463;28;20489;-58
2023/07/05 02:49:47;;;;;;;8.27;6.60;;;15.60;99.90;;;;;;5094490;28;20438;-58
2023/07/05 02:52:14;;;;;;;8.53;5.90;;;15.60;99.90;;;;;;5093611;28;20453;-57
2023/07/05 02:54:42;;;;;;;9.47;5.73;;;15.50;99.90;;;;;;5094409;28;20453;-59
2023/07/05 02:57:09;;;;;;;7.20;5.70;;;15.50;99.90;;;;;;5094320;28;20489;-58
2023/07/05 02:59:36;;;;;;;10.00;5.70;;;15.50;99.90;;;;;;5094139;28;20441;-59
2023/07/05 03:02:03;;;;;;;8.57;5.50;;;15.50;99.90;;;;;;5094691;28;20472;-59
2023/07/05 03:04:29;;;;;;;6.80;5.50;;;15.50;99.90;;;;;;5094503;28;20810;-58
2023/07/05 03:06:56;;;;;;;9.47;6.40;;;15.50;99.90;;;;;;5093821;28;20477;-59
2023/07/05 03:09:23;;;;;;;11.07;7.10;;;15.50;99.90;;;;;;5093912;28;20450;-59
2023/07/05 03:11:51;;;;;;;10.97;6.30;;;15.50;99.90;;;;;;5094029;28;20442;-59
2023/07/05 03:14:18;;;;;;;9.20;7.60;;;15.50;99.90;;;;;;5094027;28;20447;-57
2023/07/05 03:16:44;;;;;;;11.10;6.03;;;15.50;99.90;;;;;;5093744;28;20852;-57
2023/07/05 03:19:11;;;;;;;7.40;5.63;;;15.50;99.90;;;;;;5093751;28;20478;-58
2023/07/05 03:21:38;;;;;;;8.20;6.57;;;15.50;99.90;;;;;;5094037;28;20443;-58
2023/07/05 03:24:05;;;;;;;7.30;6.27;;;15.50;99.90;;;;;;5094076;28;20449;-58
2023/07/05 03:26:32;;;;;;;9.53;6.80;;;15.50;99.90;;;;;;5093835;28;20466;-58
2023/07/05 03:29:03;;;;;;;7.93;6.20;;;15.50;99.90;;;;;;5093757;28;20438;-58
2023/07/05 03:31:29;;;;;;;6.80;6.10;;;15.50;99.90;;;;;;5093877;28;20453;-58
2023/07/05 03:33:56;;;;;;;10.80;7.10;;;15.50;99.90;;;;;;5093864;28;20461;-58
2023/07/05 03:36:23;;;;;;;11.10;6.70;;;15.60;99.90;;;;;;5093513;28;20458;-58
2023/07/05 03:38:50;;;;;;;8.80;6.60;;;15.60;99.90;;;;;;5093732;28;20532;-58
2023/07/05 03:41:18;;;;;;;9.00;7.13;;;15.70;99.90;;;;;;5093494;28;20791;-58
2023/07/05 03:43:47;;;;;;;7.40;6.67;;;15.70;99.90;;;;;;5093668;28;20446;-58
2023/07/05 03:46:16;;;;;;;10.53;7.10;;;15.70;99.90;;;;;;5093268;28;20987;-59
2023/07/05 03:48:45;;;;;;;15.20;7.50;;;15.70;99.90;;;;;;5094325;28;20550;-59
2023/07/05 03:51:13;;;;;;;7.83;6.40;;;15.80;99.90;;;;;;5093784;28;20442;-57
2023/07/05 03:53:40;;;;;;;7.80;6.40;;;15.80;99.90;;;;;;5093571;28;20442;-58
2023/07/05 03:56:09;;;;;;;10.43;7.40;;;15.80;99.90;;;;;;5093584;28;20463;-57
2023/07/05 03:58:36;;;;;;;7.80;6.23;;;15.80;99.90;;;;;;5093393;28;20474;-58
2023/07/05 04:01:05;;;;;;;8.63;6.97;;;15.80;99.90;;;;;;5093539;28;20445;-58
2023/07/05 04:03:33;;;;;;;9.27;7.30;;;15.80;99.90;;;;;;5093165;28;20442;-57
2023/07/05 04:06:01;;;;;;;9.67;7.40;;;15.80;99.90;;;;;;5092961;28;20485;-58
2023/07/05 04:11:55;;;;;;;9.07;7.43;;;15.90;99.90;;;;;;5132099;27;20542;-57
2023/07/05 04:14:21;;;;;;;13.23;8.03;;;15.90;99.90;;;;;;5131585;27;20436;-58
2023/07/05 04:16:48;;;;;;;10.40;7.60;;;15.90;99.90;;;;;;5131512;27;20469;-57
2023/07/05 04:19:15;;;;;;;13.50;8.10;;;15.90;99.90;;;;;;5132605;27;20440;-58
2023/07/05 04:21:42;;;;;;;11.57;7.03;;;15.90;99.90;;;;;;5131601;27;20448;-58
2023/07/05 04:24:08;;;;;;;8.63;7.70;;;16.00;99.90;;;;;;5131302;27;20440;-58
2023/07/05 04:26:35;;;;;;;9.57;6.93;;;16.00;99.90;;;;;;5131093;27;20460;-59
2023/07/05 04:29:03;;;;;;;10.50;7.53;;;16.00;99.90;;;;;;5131010;27;20957;-58
2023/07/05 04:31:31;;;;;;;10.20;6.90;;;16.10;99.90;;;;;;5130708;27;20472;-58
2023/07/05 04:34:00;;;;;;;8.03;7.20;;;16.10;99.90;;;;;;5131222;27;20791;-58
2023/07/05 04:36:27;;;;;;;11.77;8.20;;;16.10;99.90;;;;;;5131422;27;20856;-58
2023/07/05 04:38:54;;;;;;;11.43;8.00;;;16.10;99.90;;;;;;5131043;27;20445;-57
2023/07/05 04:41:21;;;;;;;8.53;7.20;;;16.10;99.90;;;;;;5131271;27;20436;-58
2023/07/05 04:43:47;;;;;;;10.27;7.50;;;16.20;99.90;;;;;;5130963;27;20449;-58
2023/07/05 04:46:15;;;;;;;10.83;7.80;;;16.10;99.90;;;;;;5130517;27;20978;-58
2023/07/05 04:48:43;;;;;;;8.97;7.70;;;16.10;99.90;;;;;;5130500;27;20440;-59
2023/07/05 04:51:09;;;;;;;8.30;7.40;;;16.10;99.90;;;;;;5130518;27;20883;-58
2023/07/05 04:53:37;;;;;;;10.17;7.77;;;16.10;99.90;;;;;;5131476;27;20448;-58
2023/07/05 04:56:04;;;;;;;11.13;7.80;;;16.10;99.90;;;;;;5130491;27;20472;-59
2023/07/05 04:58:32;;;;;;;8.50;7.13;;;16.10;99.90;;;;;;5130703;27;20504;-59
2023/07/05 05:01:03;;;;;;;13.73;7.67;;;16.10;99.90;;;;;;5130263;27;20436;-59
2023/07/05 05:03:32;;;;;;;12.70;7.40;;;16.10;99.90;;;;;;5130168;27;20448;-58
2023/07/05 05:05:59;;;;;;;11.23;8.00;;;16.10;99.90;;;;;;5130606;27;20500;-58
2023/07/05 05:08:26;;;;;;;9.50;7.53;;;16.20;99.90;;;;;;5130989;27;20452;-59
2023/07/05 05:10:54;;;;;;;10.47;7.67;;;16.20;99.90;;;;;;5130039;27;20932;-59
2023/07/05 05:13:22;;;;;;;9.23;7.07;;;16.30;99.90;;;;;;5130345;27;20437;-58
2023/07/05 05:15:49;;;;;;;9.30;6.67;;;16.40;99.90;;;;;;5125528;22;20486;-59
2023/07/05 05:18:17;;;;;;;9.67;7.77;;;16.50;99.90;;;;;;5090020;28;20442;-58
2023/07/05 05:20:45;;;;;;;8.93;6.90;;;16.60;99.90;;;;;;5089545;28;20956;-60
2023/07/05 05:23:12;;;;;;;7.97;6.50;;;16.60;99.90;;;;;;5076969;28;20462;-60
2023/07/05 05:25:42;;;;;;;10.67;7.20;;;16.70;99.90;;;;;;5076678;28;20459;-57
2023/07/05 05:28:09;;;;;;;12.07;7.43;;;16.70;99.90;;;;;;5076354;28;20537;-59
2023/07/05 05:30:36;;;;;;;10.67;7.30;;;16.70;99.90;;;;;;5076856;28;20486;-61
2023/07/05 05:33:04;;;;;;;11.03;7.73;;;16.50;99.90;;;;;;5076357;28;20451;-60
2023/07/05 05:35:31;;;;;;;10.40;6.53;;;16.20;99.90;;;;;;5076101;28;20463;-61
2023/07/05 05:37:59;;;;;;;10.70;7.47;;;15.80;99.90;;;;;;5075647;28;20447;-61
2023/07/05 05:40:26;;;;;;;13.30;9.73;;;15.60;99.90;;;;;;5075399;28;20439;-61
2023/07/05 05:42:53;;;;;;;13.17;8.63;;;15.40;99.90;;;;;;5075798;28;20450;-60
2023/07/05 05:45:20;;;;;;;11.17;8.50;;;15.30;99.90;;;;;;5075523;28;20521;-60
2023/07/05 05:47:46;;;;;;;14.57;7.97;;;15.20;99.90;;;;;;5075462;28;20439;-60
2023/07/05 05:50:14;;;;;;;9.77;8.30;;;15.10;99.90;;;;;;5075304;28;20470;-61
2023/07/05 05:52:41;;;;;;;12.17;9.90;;;15.10;99.90;;;;;;5075228;28;20451;-61
2023/07/05 05:55:09;;;;;;;15.37;8.30;;;15.10;99.90;;;;;;5075179;28;20467;-61
2023/07/05 05:57:36;;;;;;;13.23;7.90;;;15.10;99.90;;;;;;5075352;28;20451;-59
2023/07/05 06:00:05;;;;;;;12.37;7.67;;;15.10;99.90;;;;;;5074965;28;20941;-61
2023/07/05 06:02:32;;;;;;;9.70;7.77;;;15.00;99.90;;;;;;5074851;28;20478;-60
2023/07/05 06:04:59;;;;;;;12.47;8.23;;;15.00;99.90;;;;;;5074781;28;20472;-61
2023/07/05 06:07:27;;;;;;;10.77;7.47;;;15.00;99.90;;;;;;5075241;28;20956;-60
2023/07/05 06:09:54;;;;;;;11.23;7.40;;;15.10;99.90;;;;;;5076034;28;20439;-61
2023/07/05 06:12:22;;;;;;;7.80;6.67;;;15.10;99.90;;;;;;5075813;28;20479;-61
2023/07/05 06:14:49;;;;;;;6.63;5.90;;;15.20;99.90;;;;;;5075971;28;20825;-61
2023/07/05 06:17:16;;;;;;;9.20;5.70;;;15.20;99.90;;;;;;5075089;28;20434;-61
2023/07/05 06:19:43;;;;;;;6.97;5.57;;;15.30;99.90;;;;;;5075226;28;20458;-60
2023/07/05 06:22:09;;;;;;;7.27;5.87;;;15.40;99.90;;;;;;5074486;28;20891;-60
2023/07/05 06:24:36;;;;;;;7.57;4.60;;;15.50;99.90;;;;;;5074623;28;20991;-62
2023/07/05 06:27:03;;;;;;;8.83;5.67;;;15.60;99.90;;;;;;5075788;28;20458;-61
2023/07/05 06:29:31;;;;;;;5.10;4.60;;;15.60;99.90;;;;;;5075452;28;20482;-60
2023/07/05 06:31:58;;;;;;;8.47;4.83;;;15.70;99.90;;;;;;5076167;28;20483;-59
2023/07/05 06:34:25;;;;;;;6.30;4.43;;;15.80;99.90;;;;;;5075174;28;20428;-61
2023/07/05 06:36:52;;;;;;;5.43;4.60;;;15.80;99.90;;;;;;5075685;28;20446;-60
2023/07/05 06:39:18;;;;;;;8.93;4.73;;;15.90;99.90;;;;;;5074645;28;20446;-60
2023/07/05 06:41:45;;;;;;;4.93;3.97;;;15.90;99.90;;;;;;5074470;28;20443;-59
2023/07/05 06:44:12;;;;;;;4.97;4.07;;;16.00;99.90;;;;;;5074338;28;20454;-58
2023/07/05 06:46:40;;;;;;;5.70;3.90;;;16.00;99.90;;;;;;5074453;28;20443;-59
2023/07/05 06:49:07;;;;;;;4.63;3.60;;;16.10;99.90;;;;;;5073982;28;20469;-59
2023/07/05 06:51:33;;;;;;;4.10;3.70;;;16.20;99.90;;;;;;5074208;28;20819;-61
2023/07/05 06:54:00;;;;;;;5.30;3.57;;;16.30;99.90;;;;;;5074232;28;20450;-59
2023/07/05 06:56:27;;;;;;;9.20;3.90;;;16.50;99.90;;;;;;5073877;28;20467;-60
2023/07/05 06:58:54;;;;;;;5.97;4.33;;;16.70;99.90;;;;;;5073817;28;20447;-58
2023/07/05 07:01:21;;;;;;;5.83;3.57;;;17.00;99.90;;;;;;5074035;28;20793;-59
2023/07/05 07:03:49;;;;;;;6.70;3.80;;;17.30;99.90;;;;;;5073992;28;20443;-59
2023/07/05 07:06:16;;;;;;;5.13;3.67;;;17.60;99.90;;;;;;5074308;28;20985;-61
2023/07/05 07:08:42;;;;;;;7.50;4.20;;;17.90;99.90;;;;;;5074283;28;20443;-59
2023/07/05 07:11:12;;;;;;;3.50;3.20;;;18.20;99.90;;;;;;5073826;28;20475;-59
2023/07/05 07:13:38;;;;;;;3.57;3.03;;;18.40;99.90;;;;;;5073450;28;20535;-60
2023/07/05 07:16:07;;;;;;;3.07;2.77;;;18.60;99.90;;;;;;5073491;28;20478;-58
2023/07/05 07:18:36;;;;;;;3.77;3.30;;;18.60;99.90;;;;;;5074191;28;20941;-60
2023/07/05 07:21:05;;;;;;;3.83;3.20;;;18.40;99.90;;;;;;5074187;28;20447;-60
2023/07/05 07:23:32;;;;;;;3.23;2.90;;;18.20;99.90;;;;;;5074457;28;20530;-59
2023/07/05 07:26:01;;;;;;;4.27;2.80;;;18.10;99.90;;;;;;5073382;28;20834;-59
2023/07/05 07:28:28;;;;;;;3.13;2.30;;;18.00;99.90;;;;;;5074115;28;20816;-59
2023/07/05 07:30:55;;;;;;;3.63;2.57;;;17.90;99.90;;;;;;5074017;28;20478;-59
2023/07/05 07:33:22;;;;;;;3.83;2.50;;;17.70;99.90;;;;;;5074119;28;20444;-59
2023/07/05 07:35:49;;;;;;;2.43;2.20;;;17.50;99.90;;;;;;5074176;28;20459;-59
2023/07/05 07:38:17;;;;;;;3.73;2.20;;;17.40;99.90;;;;;;5074248;28;20449;-59
2023/07/05 07:40:44;;;;;;;3.03;2.03;;;17.30;99.90;;;;;;5073365;28;20444;-59
2023/07/05 07:43:11;;;;;;;2.77;2.07;;;17.30;99.90;;;;;;5072924;28;20497;-59
2023/07/05 07:45:38;;;;;;;2.63;2.10;;;17.40;99.90;;;;;;5073082;28;20841;-58
2023/07/05 07:48:05;;;;;;;3.40;2.40;;;17.50;99.90;;;;;;5073016;28;20444;-58
2023/07/05 07:50:32;;;;;;;3.30;2.20;;;17.60;99.90;;;;;;5073305;28;20979;-59
2023/07/05 07:52:59;;;;;;;2.53;2.20;;;17.80;99.90;;;;;;5073034;28;20510;-59
2023/07/05 07:55:30;;;;;;;3.00;2.37;;;17.90;99.90;;;;;;5072886;28;20467;-58
2023/07/05 07:57:56;;;;;;;2.97;2.67;;;18.10;99.90;;;;;;5073073;28;20766;-59
2023/07/05 08:00:23;;;;;;;5.00;2.93;;;18.30;99.90;;;;;;5073139;28;20443;-59
2023/07/05 08:02:50;;;;;;;3.67;2.80;;;18.40;99.90;;;;;;5073267;28;20446;-59
2023/07/05 08:05:18;;;;;;;3.00;2.30;;;18.60;99.90;;;;;;5072930;28;20948;-59
2023/07/05 08:07:45;;;;;;;3.00;2.10;;;18.70;99.90;;;;;;5073342;28;20520;-61
2023/07/05 08:10:12;;;;;;;3.10;2.30;;;18.80;99.90;;;;;;5073320;28;20470;-60
2023/07/05 08:12:40;;;;;;;3.03;2.20;;;18.80;98.40;;;;;;5072715;28;20472;-59
2023/07/05 08:15:08;;;;;;;5.80;2.53;;;18.90;97.50;;;;;;5072784;28;20487;-57
2023/07/05 08:17:35;;;;;;;3.40;2.17;;;19.00;96.00;;;;;;5073656;28;20439;-58
2023/07/05 08:20:03;;;;;;;2.90;2.30;;;19.00;95.00;;;;;;5072703;28;20443;-58
2023/07/05 08:22:30;;;;;;;2.83;2.30;;;19.10;93.80;;;;;;5072962;28;20440;-58
2023/07/05 08:24:57;;;;;;;2.27;2.07;;;19.30;92.50;;;;;;5072844;28;20462;-59
2023/07/05 08:27:24;;;;;;;2.97;2.40;;;19.40;91.00;;;;;;5072499;28;20957;-59
2023/07/05 08:29:52;;;;;;;3.67;2.50;;;19.60;89.50;;;;;;5073004;28;20438;-59
2023/07/05 08:32:21;;;;;;;2.90;2.20;;;19.70;87.80;;;;;;5073141;28;20992;-58
2023/07/05 08:34:48;;;;;;;2.40;2.00;;;19.80;85.60;;;;;;5073042;28;20474;-59
2023/07/05 08:37:15;;;;;;;5.70;2.70;;;19.80;83.90;;;;;;5072725;28;20788;-58
2023/07/05 08:39:41;;;;;;;3.50;2.50;;;19.80;83.50;;;;;;5072455;28;21020;-58
2023/07/05 08:42:28;;;;;;;3.43;2.53;;;19.70;83.30;;;;;;5072445;28;20451;-59
2023/07/05 08:45:07;;;;;;;3.00;2.50;;;19.70;81.20;;;;;;5073482;28;20474;-58
2023/07/05 08:47:45;;;;;;;2.53;2.10;;;19.80;79.50;;;;;;5073145;28;20477;-59
2023/07/05 08:50:18;;;;;;;2.60;1.97;;;20.00;76.70;;;;;;5072879;28;20909;-59
2023/07/05 08:52:48;;;;;;;2.73;2.20;;;20.20;73.50;;;;;;5072990;28;20472;-58
2023/07/05 08:55:21;;;;;;;2.87;1.97;;;20.50;71.30;;;;;;5072482;28;20463;-59
2023/07/05 08:57:52;;;;;;;3.37;2.10;;;20.70;68.90;;;;;;5075088;28;20554;-58
2023/07/05 09:00:25;;;;;;;2.90;2.17;;;21.00;66.50;;;;;;5076491;28;20424;-58
2023/07/05 09:02:52;;;;;;;5.10;2.20;;;21.20;63.40;;;;;;5076191;28;20822;-59
2023/07/05 09:05:30;;;;;;;2.47;2.00;;;21.30;61.50;;;;;;5076386;28;20553;-59
2023/07/05 09:08:07;;;;;;;4.20;2.30;;;21.40;60.00;;;;;;5076353;28;20519;-58
2023/07/05 09:10:41;;;;;;;3.40;2.90;;;21.60;59.50;;;;;;5076600;28;20429;-58
2023/07/05 09:13:16;;;;;;;4.47;2.30;;;21.70;57.40;;;;;;5076586;28;20460;-60
2023/07/05 09:15:51;;;;;;;3.20;2.60;;;21.70;56.50;;;;;;5076405;28;20527;-58
2023/07/05 09:18:23;;;;;;;3.00;2.10;;;21.60;56.30;;;;;;5076645;28;20433;-59
2023/07/05 09:21:00;;;;;;;2.93;2.63;;;21.60;55.50;;;;;;5077213;28;20438;-58
2023/07/05 09:23:30;;;;;;;4.30;2.80;;;21.50;55.40;;;;;;5077028;28;20425;-61
2023/07/05 09:26:03;;;;;;;3.57;2.40;;;21.50;55.50;;;;;;5077152;28;20475;-60
2023/07/05 09:28:36;;;;;;;3.77;2.40;;;21.50;55.30;;;;;;5076795;28;20932;-59
2023/07/05 09:31:11;;;;;;;4.40;2.40;;;21.60;55.10;;;;;;5077173;28;20434;-60
2023/07/05 09:33:45;;;;;;;4.33;2.60;;;21.80;54.40;;;;;;5078108;28;20424;-59
2023/07/05 09:36:21;;;;;;;6.03;2.63;;;21.90;53.00;;;;;;5077497;28;20467;-57
2023/07/05 09:38:53;;;;;;;4.57;2.90;;;22.00;52.20;;;;;;5076684;28;20458;-62
2023/07/05 09:41:28;;;;;;;2.60;2.10;;;22.20;51.90;;;;;;5077328;28;20413;-58
2023/07/05 09:43:55;;;;;;;3.50;1.90;;;22.20;51.10;;;;;;5077310;28;20437;-61
2023/07/05 09:46:28;;;;;;;3.60;2.13;;;22.10;50.80;;;;;;5076934;28;20465;-60
2023/07/05 09:48:57;;;;;;;2.03;1.53;;;22.10;50.60;;;;;;5076900;28;20514;-58
2023/07/05 09:51:24;;;;;;;2.40;1.83;;;22.20;50.40;;;;;;5076687;28;20442;-60
2023/07/05 09:53:53;;;;;;;2.13;1.80;;;22.10;50.40;;;;;;5077020;28;20443;-60
2023/07/05 09:56:27;;;;;;;5.30;2.40;;;22.00;50.20;;;;;;5077352;28;20464;-59
2023/07/05 09:59:07;;;;;;;4.47;2.73;;;22.00;50.40;;;;;;5077004;28;20425;-60
2023/07/05 10:01:37;;;;;;;2.40;1.90;;;21.80;50.50;;;;;;5077982;28;20468;-59
2023/07/05 10:04:06;;;;;;;2.67;1.83;;;21.70;50.50;;;;;;5080506;28;20438;-59
2023/07/05 10:06:33;;;;;;;1.93;1.57;;;21.50;50.30;;;;;;5078098;28;20458;-59
2023/07/05 10:09:04;;;;;;;3.73;1.90;;;21.40;50.40;;;;;;5077921;28;20506;-57
2023/07/05 10:11:33;;;;;;;2.30;1.67;;;21.40;50.10;;;;;;5077046;28;20494;-60
2023/07/05 10:14:12;;;;;;;6.27;2.40;;;21.30;50.00;;;;;;5077147;28;20442;-61
2023/07/05 10:16:53;;;;;;;1.70;1.60;;;21.50;50.00;;;;;;5077520;28;20477;-62
2023/07/05 10:19:24;;;;;;;3.27;2.03;;;21.70;49.60;;;;;;5077384;28;20428;-60
2023/07/05 10:21:54;;;;;;;4.47;2.00;;;21.80;49.60;;;;;;5083508;28;20421;-59
2023/07/05 10:24:21;;;;;;;2.30;1.67;;;21.80;48.80;;;;;;5082947;28;20438;-60
2023/07/05 10:26:52;;;;;;;4.17;1.97;;;22.00;48.70;;;;;;5082410;28;20448;-60
2023/07/05 10:29:25;;;;;;;2.60;2.00;;;22.20;48.60;;;;;;5077389;28;20440;-60
2023/07/05 10:31:58;;;;;;;4.93;1.50;;;22.10;48.60;;;;;;5075838;28;20846;-60
2023/07/05 10:34:26;;;;;;;2.80;1.83;;;21.90;48.70;;;;;;5076911;28;20892;-61
2023/07/05 10:36:53;;;;;;;8.40;2.07;;;21.70;49.10;;;;;;5077080;28;20452;-60
2023/07/05 10:39:23;;;;;;;5.07;1.60;;;21.50;49.50;;;;;;5077251;28;20449;-60
2023/07/05 10:41:52;;;;;;;1.93;1.60;;;21.30;50.00;;;;;;5076734;28;20436;-60
2023/07/05 10:44:26;;;;;;;4.63;1.97;;;21.00;50.70;;;;;;5076890;28;20443;-61
2023/07/05 10:46:55;;;;;;;2.60;2.20;;;20.80;51.80;;;;;;5076737;28;20432;-60
2023/07/05 10:49:22;;;;;;;4.40;1.70;;;20.70;51.30;;;;;;5076244;28;20882;-59
2023/07/05 10:51:52;;;;;;;2.00;1.80;;;20.60;51.40;;;;;;5076290;28;20450;-61
2023/07/05 10:54:27;;;;;;;3.10;1.63;;;20.60;51.70;;;;;;5076124;28;20498;-59
2023/07/05 10:56:55;;;;;;;4.00;2.10;;;20.60;51.70;;;;;;5075956;28;20799;-61
2023/07/05 10:59:30;;;;;;;1.83;1.57;;;20.70;51.50;;;;;;5075757;28;20497;-61
2023/07/05 11:02:01;;;;;;;1.90;1.40;;;20.80;51.40;;;;;;5075404;28;20424;-60
2023/07/05 11:04:31;;;;;;;1.83;1.30;;;20.80;51.40;;;;;;5075717;28;20432;-61
2023/07/05 11:07:06;;;;;;;5.17;1.70;;;20.70;51.20;;;;;;5074632;28;20530;-60
2023/07/05 11:09:35;;;;;;;1.47;1.30;;;20.70;51.30;;;;;;5075470;28;20434;-61
2023/07/05 11:12:05;;;;;;;2.23;1.37;;;20.80;51.20;;;;;;5075118;28;20494;-59
2023/07/05 11:14:33;;;;;;;3.07;1.80;;;20.90;51.40;;;;;;5075343;28;20492;-60
2023/07/05 11:17:01;;;;;;;1.73;1.23;;;21.00;52.20;;;;;;5075929;28;20432;-60
2023/07/05 11:19:31;;;;;;;4.90;1.53;;;21.10;51.60;;;;;;5074865;28;20979;-61
2023/07/05 11:22:00;;;;;;;4.13;1.27;;;21.20;51.60;;;;;;5075544;28;20444;-61
2023/07/05 11:24:44;;;;;;;2.70;1.40;;;21.20;51.30;;;;;;5075046;28;20454;-60
2023/07/05 11:27:43;;;;;;;3.43;1.80;;;21.20;51.30;;;;;;5075591;28;20435;-61
2023/07/05 11:30:39;;;;;;;2.70;1.37;;;21.00;51.30;;;;;;5075118;28;20452;-59
2023/07/05 11:33:20;;;;;;;3.60;1.50;;;20.80;51.20;;;;;;5074944;28;20459;-63
2023/07/05 11:35:49;;;;;;;2.57;1.97;;;20.90;51.20;;;;;;5075161;28;20467;-63
2023/07/05 11:39:05;;;;;;;3.57;2.10;;;21.10;51.40;;;;;;5074450;28;20472;-59
2023/07/05 11:41:34;;;;;;;2.77;1.50;;;21.20;51.00;;;;;;5074926;28;20431;-61
2023/07/05 11:44:03;;;;;;;2.40;1.50;;;21.40;50.90;;;;;;5074455;28;20534;-58
2023/07/05 11:46:52;;;;;;;2.60;1.47;;;21.50;50.90;;;;;;5074447;28;20471;-60
2023/07/05 11:49:39;;;;;;;2.30;1.60;;;21.50;51.00;;;;;;5074408;28;20933;-59
2023/07/05 11:52:18;;;;;;;2.50;1.83;;;21.60;51.00;;;;;;5075172;28;20439;-61
2023/07/05 11:54:58;;;;;;;4.00;1.40;;;21.60;50.90;;;;;;5074696;28;20469;-61
2023/07/05 11:57:28;;;;;;;4.00;1.07;;;21.60;50.90;;;;;;5075655;28;20429;-61
2023/07/05 12:00:02;;;;;;;1.93;1.70;;;21.40;50.90;;;;;;5075259;28;20471;-61
2023/07/05 12:02:39;;;;;;;3.37;1.50;;;21.30;51.00;;;;;;5074727;28;20424;-61
2023/07/05 12:05:12;;;;;;;2.37;1.60;;;21.10;51.10;;;;;;5075130;28;20464;-60
2023/07/05 12:07:41;;;;;;;3.10;1.90;;;21.10;51.00;;;;;;5074501;28;20432;-60
2023/07/05 12:10:10;;;;;;;2.73;1.77;;;21.00;50.60;;;;;;5074986;28;20441;-60
2023/07/05 12:12:40;;;;;;;2.67;1.40;;;21.20;50.40;;;;;;5074729;28;20480;-60
2023/07/05 12:15:10;;;;;;;3.20;1.60;;;21.50;49.90;;;;;;5073688;28;20480;-61
2023/07/05 12:17:38;;;;;;;3.30;1.70;;;21.80;49.40;;;;;;5074675;28;20469;-60
2023/07/05 12:20:21;;;;;;;3.20;1.60;;;22.20;48.60;;;;;;5075403;28;20442;-60
2023/07/05 12:22:48;;;;;;;5.43;1.53;;;22.80;47.70;;;;;;5075217;28;20431;-60
2023/07/05 12:25:15;;;;;;;3.77;1.73;;;23.30;46.80;;;;;;5075251;28;20524;-62
2023/07/05 12:27:43;;;;;;;3.87;2.00;;;23.80;46.20;;;;;;5075767;28;20446;-61
2023/07/05 12:30:18;;;;;;;2.47;1.40;;;23.90;45.60;;;;;;5075129;28;20439;-60
2023/07/05 12:32:49;;;;;;;2.90;1.33;;;23.70;45.70;;;;;;5076960;28;20461;-65
2023/07/05 12:35:20;;;;;;;6.40;1.60;;;23.30;46.20;;;;;;5079886;28;20462;-60
2023/07/05 12:37:48;;;;;;;1.90;1.40;;;23.00;46.20;;;;;;5079901;28;20458;-60
2023/07/05 12:40:23;;;;;;;2.30;2.10;;;22.90;46.20;;;;;;5077575;28;20465;-59
2023/07/05 12:42:52;;;;;;;5.77;1.83;;;22.80;46.70;;;;;;5077972;28;20461;-63
2023/07/05 12:45:22;;;;;;;3.03;1.97;;;22.70;46.70;;;;;;5077464;28;20466;-60
2023/07/05 12:47:49;;;;;;;2.73;1.80;;;22.40;47.00;;;;;;5077474;28;20446;-62
2023/07/05 12:50:21;;;;;;;3.07;1.60;;;22.00;47.40;;;;;;5077873;28;20449;-61
2023/07/05 12:53:06;;;;;;;2.33;1.60;;;21.70;47.70;;;;;;5077281;28;21004;-60
2023/07/05 12:55:37;;;;;;;3.47;1.57;;;21.40;48.10;;;;;;5077259;28;20549;-61
2023/07/05 12:58:06;;;;;;;6.37;2.00;;;21.20;48.60;;;;;;5077346;28;20528;-62
2023/07/05 13:00:34;;;;;;;2.70;1.33;;;21.20;48.70;;;;;;5078061;28;20452;-62
2023/07/05 13:03:03;;;;;;;2.90;1.80;;;21.20;48.70;;;;;;5077669;28;20468;-59